sensor_id;sensor_type;location;lat;lon;timestamp;P1;durP1;ratioP1;P2;durP2;ratioP2
2992;SDS011;1506;48.932;9.478;2023-02-08T00:00:56;15.53;;;8.43;;
2992;SDS011;1506;48.932;9.478;2023-02-08T00:03:23;16.00;;;9.50;;
2992;SDS011;1506;48.932;9.478;2023-02-08T00:05:50;11.90;;;9.57;;
2992;SDS011;1506;48.932;9.478;2023-02-08T00:08:18;16.87;;;9.60;;
2992;SDS011;1506;48.932;9.478;2023-02-08T00:10:45;15.07;;;9.00;;
2992;SDS011;1506;48.932;9.478;2023-02-08T00:13:13;26.77;;;9.90;;
2992;SDS011;1506;48.932;9.478;2023-02-08T00:15:43;19.20;;;9.97;;
2992;SDS011;1506;48.932;9.478;2023-02-08T00:18:11;21.50;;;8.43;;
2992;SDS011;1506;48.932;9.478;2023-02-08T00:20:39;14.83;;;8.70;;
2992;SDS011;1506;48.932;9.478;2023-02-08T00:23:08;22.33;;;9.87;;
2992;SDS011;1506;48.932;9.478;2023-02-08T00:25:35;15.53;;;9.67;;
2992;SDS011;1506;48.932;9.478;2023-02-08T00:28:03;16.67;;;8.80;;
2992;SDS011;1506;48.932;9.478;2023-02-08T00:30:34;15.37;;;9.87;;
2992;SDS011;1506;48.932;9.478;2023-02-08T00:33:02;16.03;;;9.73;;
2992;SDS011;1506;48.932;9.478;2023-02-08T00:35:30;17.93;;;9.87;;
2992;SDS011;1506;48.932;9.478;2023-02-08T00:37:58;13.70;;;8.30;;
2992;SDS011;1506;48.932;9.478;2023-02-08T00:40:25;18.40;;;9.20;;
2992;SDS011;1506;48.932;9.478;2023-02-08T00:42:53;19.03;;;10.03;;
2992;SDS011;1506;48.932;9.478;2023-02-08T00:45:20;13.50;;;8.77;;
2992;SDS011;1506;48.932;9.478;2023-02-08T00:47:48;9.47;;;7.73;;
2992;SDS011;1506;48.932;9.478;2023-02-08T00:50:16;14.03;;;9.70;;
2992;SDS011;1506;48.932;9.478;2023-02-08T00:52:43;18.87;;;9.97;;
2992;SDS011;1506;48.932;9.478;2023-02-08T00:55:11;10.77;;;9.40;;
2992;SDS011;1506;48.932;9.478;2023-02-08T00:57:38;15.50;;;9.13;;
2992;SDS011;1506;48.932;9.478;2023-02-08T01:00:06;12.10;;;8.17;;
2992;SDS011;1506;48.932;9.478;2023-02-08T01:02:36;14.30;;;8.80;;
2992;SDS011;1506;48.932;9.478;2023-02-08T01:05:04;19.87;;;9.33;;
2992;SDS011;1506;48.932;9.478;2023-02-08T01:07:32;12.33;;;8.83;;
2992;SDS011;1506;48.932;9.478;2023-02-08T01:10:01;17.63;;;10.47;;
2992;SDS011;1506;48.932;9.478;2023-02-08T01:12:29;25.57;;;11.17;;
2992;SDS011;1506;48.932;9.478;2023-02-08T01:14:57;16.70;;;11.30;;
2992;SDS011;1506;48.932;9.478;2023-02-08T01:17:25;27.67;;;9.90;;
2992;SDS011;1506;48.932;9.478;2023-02-08T01:19:52;17.10;;;9.90;;
2992;SDS011;1506;48.932;9.478;2023-02-08T01:22:19;25.60;;;11.33;;
2992;SDS011;1506;48.932;9.478;2023-02-08T01:24:47;29.93;;;13.53;;
2992;SDS011;1506;48.932;9.478;2023-02-08T01:27:14;26.50;;;12.80;;
2992;SDS011;1506;48.932;9.478;2023-02-08T01:29:42;22.57;;;12.10;;
2992;SDS011;1506;48.932;9.478;2023-02-08T01:32:09;16.03;;;9.80;;
2992;SDS011;1506;48.932;9.478;2023-02-08T01:34:36;23.17;;;11.60;;
2992;SDS011;1506;48.932;9.478;2023-02-08T01:37:04;20.77;;;13.53;;
2992;SDS011;1506;48.932;9.478;2023-02-08T01:39:31;17.90;;;11.47;;
2992;SDS011;1506;48.932;9.478;2023-02-08T01:41:59;9.30;;;8.13;;
2992;SDS011;1506;48.932;9.478;2023-02-08T01:47:43;13.33;;;10.73;;
2992;SDS011;1506;48.932;9.478;2023-02-08T01:50:12;28.27;;;13.23;;
2992;SDS011;1506;48.932;9.478;2023-02-08T01:52:40;23.07;;;11.50;;
2992;SDS011;1506;48.932;9.478;2023-02-08T01:55:09;15.03;;;9.67;;
2992;SDS011;1506;48.932;9.478;2023-02-08T01:57:49;20.20;;;9.70;;
2992;SDS011;1506;48.932;9.478;2023-02-08T02:00:20;16.47;;;9.83;;
2992;SDS011;1506;48.932;9.478;2023-02-08T02:02:49;14.53;;;10.63;;
2992;SDS011;1506;48.932;9.478;2023-02-08T02:05:22;20.20;;;11.20;;
2992;SDS011;1506;48.932;9.478;2023-02-08T02:07:51;30.00;;;11.50;;
2992;SDS011;1506;48.932;9.478;2023-02-08T02:12:55;12.77;;;8.17;;
2992;SDS011;1506;48.932;9.478;2023-02-08T02:15:23;18.13;;;10.30;;
2992;SDS011;1506;48.932;9.478;2023-02-08T02:17:51;21.00;;;11.83;;
2992;SDS011;1506;48.932;9.478;2023-02-08T02:42:40;27.13;;;9.40;;
2992;SDS011;1506;48.932;9.478;2023-02-08T02:52:03;17.90;;;10.67;;
2992;SDS011;1506;48.932;9.478;2023-02-08T02:54:53;15.73;;;9.20;;
2992;SDS011;1506;48.932;9.478;2023-02-08T02:57:28;16.03;;;8.57;;
2992;SDS011;1506;48.932;9.478;2023-02-08T03:00:00;16.43;;;9.00;;
2992;SDS011;1506;48.932;9.478;2023-02-08T03:02:34;19.97;;;9.33;;
2992;SDS011;1506;48.932;9.478;2023-02-08T03:05:01;15.53;;;9.27;;
2992;SDS011;1506;48.932;9.478;2023-02-08T03:16:09;18.77;;;9.70;;
2992;SDS011;1506;48.932;9.478;2023-02-08T03:18:50;13.07;;;8.90;;
2992;SDS011;1506;48.932;9.478;2023-02-08T03:24:25;20.50;;;10.23;;
2992;SDS011;1506;48.932;9.478;2023-02-08T03:27:16;11.97;;;8.43;;
2992;SDS011;1506;48.932;9.478;2023-02-08T03:29:48;14.03;;;8.63;;
2992;SDS011;1506;48.932;9.478;2023-02-08T03:32:24;14.20;;;8.80;;
2992;SDS011;1506;48.932;9.478;2023-02-08T03:37:36;14.80;;;8.40;;
2992;SDS011;1506;48.932;9.478;2023-02-08T03:40:27;16.00;;;9.17;;
2992;SDS011;1506;48.932;9.478;2023-02-08T03:43:07;15.87;;;9.60;;
2992;SDS011;1506;48.932;9.478;2023-02-08T03:45:41;19.70;;;9.00;;
2992;SDS011;1506;48.932;9.478;2023-02-08T03:48:32;18.97;;;10.30;;
2992;SDS011;1506;48.932;9.478;2023-02-08T03:51:00;22.73;;;10.00;;
2992;SDS011;1506;48.932;9.478;2023-02-08T03:53:29;9.63;;;8.67;;
2992;SDS011;1506;48.932;9.478;2023-02-08T03:56:05;24.80;;;10.20;;
2992;SDS011;1506;48.932;9.478;2023-02-08T03:58:41;18.90;;;9.30;;
2992;SDS011;1506;48.932;9.478;2023-02-08T04:01:16;21.20;;;10.13;;
2992;SDS011;1506;48.932;9.478;2023-02-08T04:03:46;19.90;;;9.73;;
2992;SDS011;1506;48.932;9.478;2023-02-08T04:06:15;13.33;;;9.20;;
2992;SDS011;1506;48.932;9.478;2023-02-08T04:08:43;14.40;;;8.60;;
2992;SDS011;1506;48.932;9.478;2023-02-08T04:11:10;12.97;;;8.73;;
2992;SDS011;1506;48.932;9.478;2023-02-08T04:13:37;18.73;;;10.40;;
2992;SDS011;1506;48.932;9.478;2023-02-08T04:16:05;18.70;;;9.57;;
2992;SDS011;1506;48.932;9.478;2023-02-08T04:18:32;18.10;;;10.50;;
2992;SDS011;1506;48.932;9.478;2023-02-08T04:21:00;22.43;;;10.97;;
2992;SDS011;1506;48.932;9.478;2023-02-08T04:23:27;12.10;;;9.33;;
2992;SDS011;1506;48.932;9.478;2023-02-08T04:25:54;21.30;;;10.20;;
2992;SDS011;1506;48.932;9.478;2023-02-08T04:28:22;15.43;;;9.87;;
2992;SDS011;1506;48.932;9.478;2023-02-08T04:30:49;22.43;;;10.37;;
2992;SDS011;1506;48.932;9.478;2023-02-08T04:33:17;12.40;;;8.40;;
2992;SDS011;1506;48.932;9.478;2023-02-08T04:35:44;22.63;;;9.80;;
2992;SDS011;1506;48.932;9.478;2023-02-08T04:38:11;34.80;;;11.50;;
2992;SDS011;1506;48.932;9.478;2023-02-08T04:40:39;14.53;;;9.90;;
2992;SDS011;1506;48.932;9.478;2023-02-08T04:43:06;21.57;;;10.80;;
2992;SDS011;1506;48.932;9.478;2023-02-08T04:45:34;15.97;;;10.70;;
2992;SDS011;1506;48.932;9.478;2023-02-08T04:48:01;20.65;;;10.95;;
2992;SDS011;1506;48.932;9.478;2023-02-08T04:50:29;18.30;;;10.53;;
2992;SDS011;1506;48.932;9.478;2023-02-08T04:52:56;20.70;;;10.40;;
2992;SDS011;1506;48.932;9.478;2023-02-08T04:55:24;16.27;;;10.00;;
2992;SDS011;1506;48.932;9.478;2023-02-08T04:57:51;19.43;;;11.00;;
2992;SDS011;1506;48.932;9.478;2023-02-08T05:00:19;22.87;;;11.60;;
2992;SDS011;1506;48.932;9.478;2023-02-08T05:02:46;20.00;;;10.57;;
2992;SDS011;1506;48.932;9.478;2023-02-08T05:05:13;18.53;;;11.77;;
2992;SDS011;1506;48.932;9.478;2023-02-08T05:07:41;18.00;;;10.33;;
2992;SDS011;1506;48.932;9.478;2023-02-08T05:10:08;22.90;;;10.53;;
2992;SDS011;1506;48.932;9.478;2023-02-08T05:12:36;28.53;;;12.73;;
2992;SDS011;1506;48.932;9.478;2023-02-08T05:15:03;29.40;;;10.70;;
2992;SDS011;1506;48.932;9.478;2023-02-08T05:17:31;14.87;;;9.60;;
2992;SDS011;1506;48.932;9.478;2023-02-08T05:19:58;30.33;;;12.10;;
2992;SDS011;1506;48.932;9.478;2023-02-08T05:22:25;20.97;;;10.30;;
2992;SDS011;1506;48.932;9.478;2023-02-08T05:24:53;21.13;;;11.00;;
2992;SDS011;1506;48.932;9.478;2023-02-08T05:27:20;20.03;;;10.10;;
2992;SDS011;1506;48.932;9.478;2023-02-08T05:29:48;22.97;;;11.60;;
2992;SDS011;1506;48.932;9.478;2023-02-08T05:32:15;21.27;;;11.17;;
2992;SDS011;1506;48.932;9.478;2023-02-08T05:34:43;16.70;;;9.80;;
2992;SDS011;1506;48.932;9.478;2023-02-08T05:37:10;23.07;;;12.30;;
2992;SDS011;1506;48.932;9.478;2023-02-08T05:39:39;28.63;;;11.40;;
2992;SDS011;1506;48.932;9.478;2023-02-08T05:42:06;18.40;;;10.80;;
2992;SDS011;1506;48.932;9.478;2023-02-08T05:44:34;21.90;;;9.27;;
2992;SDS011;1506;48.932;9.478;2023-02-08T05:47:01;31.67;;;14.50;;
2992;SDS011;1506;48.932;9.478;2023-02-08T05:49:29;21.10;;;10.80;;
2992;SDS011;1506;48.932;9.478;2023-02-08T05:51:56;30.07;;;11.93;;
2992;SDS011;1506;48.932;9.478;2023-02-08T05:54:24;19.43;;;11.77;;
2992;SDS011;1506;48.932;9.478;2023-02-08T05:56:51;32.17;;;14.93;;
2992;SDS011;1506;48.932;9.478;2023-02-08T05:59:18;27.13;;;11.90;;
2992;SDS011;1506;48.932;9.478;2023-02-08T06:01:46;21.30;;;11.50;;
2992;SDS011;1506;48.932;9.478;2023-02-08T06:04:14;24.67;;;12.00;;
2992;SDS011;1506;48.932;9.478;2023-02-08T06:06:42;24.87;;;12.40;;
2992;SDS011;1506;48.932;9.478;2023-02-08T06:09:09;36.53;;;14.40;;
2992;SDS011;1506;48.932;9.478;2023-02-08T06:11:36;19.80;;;10.63;;
2992;SDS011;1506;48.932;9.478;2023-02-08T06:14:04;23.37;;;12.40;;
2992;SDS011;1506;48.932;9.478;2023-02-08T06:16:31;22.97;;;12.00;;
2992;SDS011;1506;48.932;9.478;2023-02-08T06:18:59;25.97;;;14.20;;
2992;SDS011;1506;48.932;9.478;2023-02-08T06:21:26;34.43;;;14.00;;
2992;SDS011;1506;48.932;9.478;2023-02-08T06:23:53;35.47;;;11.40;;
2992;SDS011;1506;48.932;9.478;2023-02-08T06:26:21;26.07;;;12.43;;
2992;SDS011;1506;48.932;9.478;2023-02-08T06:28:49;24.00;;;13.37;;
2992;SDS011;1506;48.932;9.478;2023-02-08T06:31:16;22.60;;;12.50;;
2992;SDS011;1506;48.932;9.478;2023-02-08T06:33:43;23.23;;;11.97;;
2992;SDS011;1506;48.932;9.478;2023-02-08T06:36:11;25.17;;;12.93;;
2992;SDS011;1506;48.932;9.478;2023-02-08T06:38:38;22.57;;;12.43;;
2992;SDS011;1506;48.932;9.478;2023-02-08T06:41:05;29.47;;;13.00;;
2992;SDS011;1506;48.932;9.478;2023-02-08T06:43:33;32.83;;;10.90;;
2992;SDS011;1506;48.932;9.478;2023-02-08T06:46:00;29.33;;;10.83;;
2992;SDS011;1506;48.932;9.478;2023-02-08T06:48:30;23.13;;;11.20;;
2992;SDS011;1506;48.932;9.478;2023-02-08T06:50:57;24.30;;;11.90;;
2992;SDS011;1506;48.932;9.478;2023-02-08T06:53:25;31.97;;;14.70;;
2992;SDS011;1506;48.932;9.478;2023-02-08T06:55:52;23.23;;;12.77;;
2992;SDS011;1506;48.932;9.478;2023-02-08T06:58:20;27.13;;;14.30;;
2992;SDS011;1506;48.932;9.478;2023-02-08T07:00:47;19.43;;;11.87;;
2992;SDS011;1506;48.932;9.478;2023-02-08T07:03:14;27.03;;;13.30;;
2992;SDS011;1506;48.932;9.478;2023-02-08T07:05:44;30.37;;;12.00;;
2992;SDS011;1506;48.932;9.478;2023-02-08T07:08:29;21.83;;;11.00;;
2992;SDS011;1506;48.932;9.478;2023-02-08T07:10:57;35.00;;;14.00;;
2992;SDS011;1506;48.932;9.478;2023-02-08T07:13:24;30.70;;;13.87;;
2992;SDS011;1506;48.932;9.478;2023-02-08T07:15:52;36.33;;;14.33;;
2992;SDS011;1506;48.932;9.478;2023-02-08T07:18:19;28.23;;;14.13;;
2992;SDS011;1506;48.932;9.478;2023-02-08T07:20:47;22.70;;;13.10;;
2992;SDS011;1506;48.932;9.478;2023-02-08T07:23:14;25.90;;;13.40;;
2992;SDS011;1506;48.932;9.478;2023-02-08T07:25:42;26.63;;;13.30;;
2992;SDS011;1506;48.932;9.478;2023-02-08T07:28:09;29.53;;;13.43;;
2992;SDS011;1506;48.932;9.478;2023-02-08T07:30:36;26.00;;;12.90;;
2992;SDS011;1506;48.932;9.478;2023-02-08T07:33:04;21.20;;;11.20;;
2992;SDS011;1506;48.932;9.478;2023-02-08T07:35:32;25.50;;;14.17;;
2992;SDS011;1506;48.932;9.478;2023-02-08T07:37:59;21.53;;;11.87;;
2992;SDS011;1506;48.932;9.478;2023-02-08T07:40:26;23.67;;;13.50;;
2992;SDS011;1506;48.932;9.478;2023-02-08T07:42:54;22.40;;;11.00;;
2992;SDS011;1506;48.932;9.478;2023-02-08T07:45:32;19.80;;;10.90;;
2992;SDS011;1506;48.932;9.478;2023-02-08T07:48:00;19.27;;;11.63;;
2992;SDS011;1506;48.932;9.478;2023-02-08T07:50:27;25.37;;;12.93;;
2992;SDS011;1506;48.932;9.478;2023-02-08T07:52:54;24.40;;;12.73;;
2992;SDS011;1506;48.932;9.478;2023-02-08T07:55:22;24.10;;;12.10;;
2992;SDS011;1506;48.932;9.478;2023-02-08T07:57:49;24.13;;;13.10;;
2992;SDS011;1506;48.932;9.478;2023-02-08T08:00:17;20.13;;;11.50;;
2992;SDS011;1506;48.932;9.478;2023-02-08T08:02:44;25.77;;;12.30;;
2992;SDS011;1506;48.932;9.478;2023-02-08T08:05:11;23.00;;;11.00;;
2992;SDS011;1506;48.932;9.478;2023-02-08T08:07:39;27.60;;;13.87;;
2992;SDS011;1506;48.932;9.478;2023-02-08T08:10:06;23.37;;;12.70;;
2992;SDS011;1506;48.932;9.478;2023-02-08T08:12:34;26.57;;;12.53;;
2992;SDS011;1506;48.932;9.478;2023-02-08T08:15:01;28.60;;;14.97;;
2992;SDS011;1506;48.932;9.478;2023-02-08T08:17:29;25.67;;;12.47;;
2992;SDS011;1506;48.932;9.478;2023-02-08T08:19:56;27.10;;;13.20;;
2992;SDS011;1506;48.932;9.478;2023-02-08T08:22:24;27.80;;;13.87;;
2992;SDS011;1506;48.932;9.478;2023-02-08T08:24:51;31.10;;;13.23;;
2992;SDS011;1506;48.932;9.478;2023-02-08T08:27:19;33.30;;;13.73;;
2992;SDS011;1506;48.932;9.478;2023-02-08T08:29:47;24.43;;;12.80;;
2992;SDS011;1506;48.932;9.478;2023-02-08T08:32:14;22.33;;;11.97;;
2992;SDS011;1506;48.932;9.478;2023-02-08T08:34:41;19.43;;;11.03;;
2992;SDS011;1506;48.932;9.478;2023-02-08T08:37:09;30.43;;;11.90;;
2992;SDS011;1506;48.932;9.478;2023-02-08T08:39:36;23.43;;;12.43;;
2992;SDS011;1506;48.932;9.478;2023-02-08T08:42:03;20.47;;;11.77;;
2992;SDS011;1506;48.932;9.478;2023-02-08T08:44:31;17.60;;;11.53;;
2992;SDS011;1506;48.932;9.478;2023-02-08T08:46:59;22.47;;;13.67;;
2992;SDS011;1506;48.932;9.478;2023-02-08T08:49:27;21.63;;;10.30;;
2992;SDS011;1506;48.932;9.478;2023-02-08T08:51:55;26.10;;;12.80;;
2992;SDS011;1506;48.932;9.478;2023-02-08T08:54:23;16.37;;;10.43;;
2992;SDS011;1506;48.932;9.478;2023-02-08T08:56:50;18.33;;;10.87;;
2992;SDS011;1506;48.932;9.478;2023-02-08T08:59:17;24.10;;;12.57;;
2992;SDS011;1506;48.932;9.478;2023-02-08T09:01:45;16.73;;;10.60;;
2992;SDS011;1506;48.932;9.478;2023-02-08T09:04:13;19.70;;;12.10;;
2992;SDS011;1506;48.932;9.478;2023-02-08T09:06:40;13.70;;;10.03;;
2992;SDS011;1506;48.932;9.478;2023-02-08T09:09:07;21.30;;;11.07;;
2992;SDS011;1506;48.932;9.478;2023-02-08T09:11:35;18.60;;;9.37;;
2992;SDS011;1506;48.932;9.478;2023-02-08T09:14:02;26.43;;;11.33;;
2992;SDS011;1506;48.932;9.478;2023-02-08T09:16:30;15.53;;;10.23;;
2992;SDS011;1506;48.932;9.478;2023-02-08T09:19:01;9.27;;;6.40;;
2992;SDS011;1506;48.932;9.478;2023-02-08T09:21:32;19.10;;;10.33;;
2992;SDS011;1506;48.932;9.478;2023-02-08T09:24:00;18.80;;;10.17;;
2992;SDS011;1506;48.932;9.478;2023-02-08T09:26:27;15.63;;;10.13;;
2992;SDS011;1506;48.932;9.478;2023-02-08T09:28:55;16.60;;;9.30;;
2992;SDS011;1506;48.932;9.478;2023-02-08T09:33:55;29.73;;;9.30;;
2992;SDS011;1506;48.932;9.478;2023-02-08T09:36:24;16.37;;;8.97;;
2992;SDS011;1506;48.932;9.478;2023-02-08T09:38:54;16.67;;;8.40;;
2992;SDS011;1506;48.932;9.478;2023-02-08T09:46:34;17.60;;;10.40;;
2992;SDS011;1506;48.932;9.478;2023-02-08T09:49:07;8.37;;;6.43;;
2992;SDS011;1506;48.932;9.478;2023-02-08T09:51:44;18.90;;;8.80;;
2992;SDS011;1506;48.932;9.478;2023-02-08T09:56:46;15.10;;;8.07;;
2992;SDS011;1506;48.932;9.478;2023-02-08T09:59:17;13.43;;;8.90;;
2992;SDS011;1506;48.932;9.478;2023-02-08T10:01:59;15.60;;;9.07;;
2992;SDS011;1506;48.932;9.478;2023-02-08T10:07:23;7.60;;;4.47;;
2992;SDS011;1506;48.932;9.478;2023-02-08T10:09:52;13.93;;;8.60;;
2992;SDS011;1506;48.932;9.478;2023-02-08T10:12:41;16.00;;;9.20;;
2992;SDS011;1506;48.932;9.478;2023-02-08T10:23:42;16.87;;;9.90;;
2992;SDS011;1506;48.932;9.478;2023-02-08T10:29:26;17.57;;;9.50;;
2992;SDS011;1506;48.932;9.478;2023-02-08T10:32:17;11.10;;;8.00;;
2992;SDS011;1506;48.932;9.478;2023-02-08T10:37:32;14.60;;;8.97;;
2992;SDS011;1506;48.932;9.478;2023-02-08T10:42:51;9.40;;;5.90;;
2992;SDS011;1506;48.932;9.478;2023-02-08T10:45:37;9.67;;;8.27;;
2992;SDS011;1506;48.932;9.478;2023-02-08T10:48:16;12.50;;;7.03;;
2992;SDS011;1506;48.932;9.478;2023-02-08T10:50:57;10.63;;;7.10;;
2992;SDS011;1506;48.932;9.478;2023-02-08T10:53:24;10.17;;;6.33;;
2992;SDS011;1506;48.932;9.478;2023-02-08T10:55:52;13.90;;;7.30;;
2992;SDS011;1506;48.932;9.478;2023-02-08T10:58:20;13.13;;;6.83;;
2992;SDS011;1506;48.932;9.478;2023-02-08T11:00:49;15.60;;;7.57;;
2992;SDS011;1506;48.932;9.478;2023-02-08T11:03:21;11.37;;;8.20;;
2992;SDS011;1506;48.932;9.478;2023-02-08T11:05:50;11.03;;;6.83;;
2992;SDS011;1506;48.932;9.478;2023-02-08T11:08:22;10.83;;;6.90;;
2992;SDS011;1506;48.932;9.478;2023-02-08T11:13:37;6.50;;;5.90;;
2992;SDS011;1506;48.932;9.478;2023-02-08T11:16:06;12.40;;;7.03;;
2992;SDS011;1506;48.932;9.478;2023-02-08T11:18:39;9.80;;;6.87;;
2992;SDS011;1506;48.932;9.478;2023-02-08T11:21:25;9.53;;;6.30;;
2992;SDS011;1506;48.932;9.478;2023-02-08T11:24:04;9.33;;;5.63;;
2992;SDS011;1506;48.932;9.478;2023-02-08T11:26:48;7.33;;;5.93;;
2992;SDS011;1506;48.932;9.478;2023-02-08T11:29:17;7.23;;;4.80;;
2992;SDS011;1506;48.932;9.478;2023-02-08T11:34:27;5.53;;;5.03;;
2992;SDS011;1506;48.932;9.478;2023-02-08T11:36:58;6.73;;;5.70;;
2992;SDS011;1506;48.932;9.478;2023-02-08T11:39:38;8.20;;;6.23;;
2992;SDS011;1506;48.932;9.478;2023-02-08T11:42:12;11.20;;;5.50;;
2992;SDS011;1506;48.932;9.478;2023-02-08T11:45:04;10.43;;;6.83;;
2992;SDS011;1506;48.932;9.478;2023-02-08T11:47:32;7.73;;;6.93;;
2992;SDS011;1506;48.932;9.478;2023-02-08T11:50:02;10.17;;;5.73;;
2992;SDS011;1506;48.932;9.478;2023-02-08T11:52:36;6.83;;;5.57;;
2992;SDS011;1506;48.932;9.478;2023-02-08T11:58:01;5.93;;;5.10;;
2992;SDS011;1506;48.932;9.478;2023-02-08T12:00:31;5.37;;;4.67;;
2992;SDS011;1506;48.932;9.478;2023-02-08T12:03:04;5.07;;;4.70;;
2992;SDS011;1506;48.932;9.478;2023-02-08T12:11:22;16.70;;;7.20;;
2992;SDS011;1506;48.932;9.478;2023-02-08T12:22:23;4.37;;;4.07;;
2992;SDS011;1506;48.932;9.478;2023-02-08T12:28:04;5.23;;;4.80;;
2992;SDS011;1506;48.932;9.478;2023-02-08T12:30:50;3.27;;;2.97;;
2992;SDS011;1506;48.932;9.478;2023-02-08T12:36:15;9.00;;;5.50;;
2992;SDS011;1506;48.932;9.478;2023-02-08T12:41:53;6.13;;;5.00;;
2992;SDS011;1506;48.932;9.478;2023-02-08T12:52:49;7.37;;;4.50;;
2992;SDS011;1506;48.932;9.478;2023-02-08T12:55:25;6.50;;;5.00;;
2992;SDS011;1506;48.932;9.478;2023-02-08T12:57:59;6.07;;;4.60;;
2992;SDS011;1506;48.932;9.478;2023-02-08T13:00:46;8.17;;;5.43;;
2992;SDS011;1506;48.932;9.478;2023-02-08T13:04:02;15.43;;;6.83;;
2992;SDS011;1506;48.932;9.478;2023-02-08T13:06:11;6.97;;;5.57;;
2992;SDS011;1506;48.932;9.478;2023-02-08T13:08:57;5.87;;;5.30;;
2992;SDS011;1506;48.932;9.478;2023-02-08T13:11:32;8.00;;;4.57;;
2992;SDS011;1506;48.932;9.478;2023-02-08T13:16:52;5.63;;;5.13;;
2992;SDS011;1506;48.932;9.478;2023-02-08T13:19:24;9.07;;;6.40;;
2992;SDS011;1506;48.932;9.478;2023-02-08T13:21:56;5.53;;;5.13;;
2992;SDS011;1506;48.932;9.478;2023-02-08T13:24:30;6.90;;;3.53;;
2992;SDS011;1506;48.932;9.478;2023-02-08T13:27:03;8.13;;;5.20;;
2992;SDS011;1506;48.932;9.478;2023-02-08T13:29:34;5.40;;;5.00;;
2992;SDS011;1506;48.932;9.478;2023-02-08T13:32:03;7.17;;;6.50;;
2992;SDS011;1506;48.932;9.478;2023-02-08T13:34:41;10.43;;;6.43;;
2992;SDS011;1506;48.932;9.478;2023-02-08T13:37:20;6.50;;;6.00;;
2992;SDS011;1506;48.932;9.478;2023-02-08T13:42:47;7.93;;;6.10;;
2992;SDS011;1506;48.932;9.478;2023-02-08T13:45:39;9.03;;;7.50;;
2992;SDS011;1506;48.932;9.478;2023-02-08T13:48:11;12.10;;;6.63;;
2992;SDS011;1506;48.932;9.478;2023-02-08T13:50:53;9.63;;;6.30;;
2992;SDS011;1506;48.932;9.478;2023-02-08T13:56:08;6.60;;;6.00;;
2992;SDS011;1506;48.932;9.478;2023-02-08T14:04:25;8.20;;;6.30;;
2992;SDS011;1506;48.932;9.478;2023-02-08T14:06:46;7.80;;;6.07;;
2992;SDS011;1506;48.932;9.478;2023-02-08T14:11:53;12.07;;;6.73;;
2992;SDS011;1506;48.932;9.478;2023-02-08T14:14:30;7.40;;;5.90;;
2992;SDS011;1506;48.932;9.478;2023-02-08T14:19:31;10.53;;;7.40;;
2992;SDS011;1506;48.932;9.478;2023-02-08T14:27:25;6.50;;;6.00;;
2992;SDS011;1506;48.932;9.478;2023-02-08T14:29:57;8.80;;;7.03;;
2992;SDS011;1506;48.932;9.478;2023-02-08T14:32:28;14.20;;;6.40;;
2992;SDS011;1506;48.932;9.478;2023-02-08T14:37:47;12.70;;;5.67;;
2992;SDS011;1506;48.932;9.478;2023-02-08T14:50:40;11.70;;;6.17;;
2992;SDS011;1506;48.932;9.478;2023-02-08T14:53:35;9.87;;;6.80;;
2992;SDS011;1506;48.932;9.478;2023-02-08T14:58:45;8.73;;;7.63;;
2992;SDS011;1506;48.932;9.478;2023-02-08T15:01:35;13.13;;;7.43;;
2992;SDS011;1506;48.932;9.478;2023-02-08T15:04:14;12.57;;;7.60;;
2992;SDS011;1506;48.932;9.478;2023-02-08T15:09:34;14.73;;;8.37;;
2992;SDS011;1506;48.932;9.478;2023-02-08T15:12:05;9.37;;;5.63;;
2992;SDS011;1506;48.932;9.478;2023-02-08T15:14:43;11.63;;;6.60;;
2992;SDS011;1506;48.932;9.478;2023-02-08T15:17:29;9.17;;;6.97;;
2992;SDS011;1506;48.932;9.478;2023-02-08T15:20:14;12.67;;;5.63;;
2992;SDS011;1506;48.932;9.478;2023-02-08T15:22:47;16.87;;;7.43;;
2992;SDS011;1506;48.932;9.478;2023-02-08T15:25:26;14.83;;;7.30;;
2992;SDS011;1506;48.932;9.478;2023-02-08T15:27:59;8.03;;;7.23;;
2992;SDS011;1506;48.932;9.478;2023-02-08T15:30:33;12.17;;;7.63;;
2992;SDS011;1506;48.932;9.478;2023-02-08T15:33:02;9.97;;;6.10;;
2992;SDS011;1506;48.932;9.478;2023-02-08T15:35:40;10.20;;;7.30;;
2992;SDS011;1506;48.932;9.478;2023-02-08T15:38:27;15.60;;;6.60;;
2992;SDS011;1506;48.932;9.478;2023-02-08T15:41:06;9.90;;;6.30;;
2992;SDS011;1506;48.932;9.478;2023-02-08T15:43:35;13.77;;;6.80;;
2992;SDS011;1506;48.932;9.478;2023-02-08T15:46:05;7.63;;;6.27;;
2992;SDS011;1506;48.932;9.478;2023-02-08T15:48:42;9.83;;;7.80;;
2992;SDS011;1506;48.932;9.478;2023-02-08T15:51:11;17.13;;;9.70;;
2992;SDS011;1506;48.932;9.478;2023-02-08T15:53:40;20.97;;;8.53;;
2992;SDS011;1506;48.932;9.478;2023-02-08T15:56:09;19.90;;;8.30;;
2992;SDS011;1506;48.932;9.478;2023-02-08T15:58:59;24.47;;;8.37;;
2992;SDS011;1506;48.932;9.478;2023-02-08T16:01:27;17.07;;;7.40;;
2992;SDS011;1506;48.932;9.478;2023-02-08T16:03:57;8.80;;;7.30;;
2992;SDS011;1506;48.932;9.478;2023-02-08T16:06:26;8.00;;;7.10;;
2992;SDS011;1506;48.932;9.478;2023-02-08T16:08:55;10.40;;;7.87;;
2992;SDS011;1506;48.932;9.478;2023-02-08T16:11:25;13.23;;;7.10;;
2992;SDS011;1506;48.932;9.478;2023-02-08T16:13:57;20.73;;;7.43;;
2992;SDS011;1506;48.932;9.478;2023-02-08T16:24:25;17.70;;;9.70;;
2992;SDS011;1506;48.932;9.478;2023-02-08T16:27:05;12.20;;;9.00;;
2992;SDS011;1506;48.932;9.478;2023-02-08T16:29:53;11.50;;;8.70;;
2992;SDS011;1506;48.932;9.478;2023-02-08T16:32:31;19.37;;;10.00;;
2992;SDS011;1506;48.932;9.478;2023-02-08T16:35:13;14.17;;;6.83;;
2992;SDS011;1506;48.932;9.478;2023-02-08T16:37:56;17.20;;;10.40;;
2992;SDS011;1506;48.932;9.478;2023-02-08T16:43:16;19.97;;;8.77;;
2992;SDS011;1506;48.932;9.478;2023-02-08T16:46:14;18.67;;;8.50;;
2992;SDS011;1506;48.932;9.478;2023-02-08T16:48:37;16.07;;;9.57;;
2992;SDS011;1506;48.932;9.478;2023-02-08T16:51:13;16.90;;;10.73;;
2992;SDS011;1506;48.932;9.478;2023-02-08T16:53:55;14.83;;;9.53;;
2992;SDS011;1506;48.932;9.478;2023-02-08T16:56:26;13.57;;;8.20;;
2992;SDS011;1506;48.932;9.478;2023-02-08T16:58:54;15.80;;;8.70;;
2992;SDS011;1506;48.932;9.478;2023-02-08T17:01:21;16.20;;;8.30;;
2992;SDS011;1506;48.932;9.478;2023-02-08T17:03:53;20.20;;;9.00;;
2992;SDS011;1506;48.932;9.478;2023-02-08T17:06:28;21.90;;;9.80;;
2992;SDS011;1506;48.932;9.478;2023-02-08T17:08:57;22.40;;;10.97;;
2992;SDS011;1506;48.932;9.478;2023-02-08T17:11:26;22.40;;;11.33;;
2992;SDS011;1506;48.932;9.478;2023-02-08T17:13:54;26.10;;;12.40;;
2992;SDS011;1506;48.932;9.478;2023-02-08T17:16:24;19.60;;;12.07;;
2992;SDS011;1506;48.932;9.478;2023-02-08T17:18:53;22.77;;;11.07;;
2992;SDS011;1506;48.932;9.478;2023-02-08T17:21:21;21.67;;;11.27;;
2992;SDS011;1506;48.932;9.478;2023-02-08T17:23:49;24.53;;;12.03;;
2992;SDS011;1506;48.932;9.478;2023-02-08T17:26:17;21.83;;;11.93;;
2992;SDS011;1506;48.932;9.478;2023-02-08T17:28:48;29.27;;;13.73;;
2992;SDS011;1506;48.932;9.478;2023-02-08T17:31:15;33.40;;;13.90;;
2992;SDS011;1506;48.932;9.478;2023-02-08T17:33:43;18.30;;;11.43;;
2992;SDS011;1506;48.932;9.478;2023-02-08T17:36:12;20.80;;;12.70;;
2992;SDS011;1506;48.932;9.478;2023-02-08T17:38:41;18.17;;;12.17;;
2992;SDS011;1506;48.932;9.478;2023-02-08T17:41:13;28.80;;;12.27;;
2992;SDS011;1506;48.932;9.478;2023-02-08T17:43:42;21.77;;;10.80;;
2992;SDS011;1506;48.932;9.478;2023-02-08T17:46:10;25.40;;;12.97;;
2992;SDS011;1506;48.932;9.478;2023-02-08T17:48:41;32.70;;;17.77;;
2992;SDS011;1506;48.932;9.478;2023-02-08T17:51:10;21.53;;;10.97;;
2992;SDS011;1506;48.932;9.478;2023-02-08T17:53:42;22.80;;;11.43;;
2992;SDS011;1506;48.932;9.478;2023-02-08T17:56:10;28.00;;;13.30;;
2992;SDS011;1506;48.932;9.478;2023-02-08T17:58:39;37.70;;;13.73;;
2992;SDS011;1506;48.932;9.478;2023-02-08T18:01:08;21.50;;;12.00;;
2992;SDS011;1506;48.932;9.478;2023-02-08T18:03:39;31.83;;;12.10;;
2992;SDS011;1506;48.932;9.478;2023-02-08T18:06:06;45.33;;;19.50;;
2992;SDS011;1506;48.932;9.478;2023-02-08T18:08:34;32.37;;;16.90;;
2992;SDS011;1506;48.932;9.478;2023-02-08T18:11:10;15.23;;;11.40;;
2992;SDS011;1506;48.932;9.478;2023-02-08T18:13:41;25.57;;;12.33;;